createdAt,value
2023-01-18T00:00:27.739Z,49.1
2023-01-18T00:01:41.458Z,49.1
2023-01-18T00:02:54.420Z,49.1
2023-01-18T00:03:57.874Z,49.1
2023-01-18T00:05:10.728Z,49.1
2023-01-18T00:06:24.380Z,49.1
2023-01-18T00:07:27.211Z,49.1
2023-01-18T00:08:40.861Z,49.1
2023-01-18T00:09:53.656Z,49.1
2023-01-18T00:11:07.433Z,49.1
2023-01-18T00:12:10.271Z,49.1
2023-01-18T00:13:23.879Z,49.1
2023-01-18T00:14:36.678Z,49.1
2023-01-18T00:15:40.412Z,49.0
2023-01-18T00:16:53.187Z,49.0
2023-01-18T00:18:06.889Z,49.1
2023-01-18T00:19:09.704Z,49.1
2023-01-18T00:20:23.508Z,49.1
2023-01-18T00:21:36.307Z,49.1
2023-01-18T00:22:39.896Z,49.0
2023-01-18T00:23:52.677Z,49.0
2023-01-18T00:25:06.436Z,49.1
2023-01-18T00:26:09.257Z,49.1
2023-01-18T00:27:22.935Z,49.1
2023-01-18T00:28:35.729Z,49.0
2023-01-18T00:29:49.381Z,49.0
2023-01-18T00:30:52.225Z,49.0
2023-01-18T00:32:05.883Z,49.1
2023-01-18T00:33:18.683Z,49.1
2023-01-18T00:34:22.415Z,49.0
2023-01-18T00:35:35.194Z,49.1
2023-01-18T00:36:48.877Z,49.1
2023-01-18T00:37:51.734Z,49.0
2023-01-18T00:39:05.416Z,49.1
2023-01-18T00:40:18.317Z,49.0
2023-01-18T00:41:31.937Z,49.0
2023-01-18T00:42:34.846Z,49.0
2023-01-18T00:43:48.415Z,49.0
2023-01-18T00:45:01.369Z,49.0
2023-01-18T00:46:04.931Z,49.0
2023-01-18T00:47:17.916Z,49.0
2023-01-18T00:48:31.412Z,49.0
2023-01-18T00:49:34.264Z,49.0
2023-01-18T00:50:47.897Z,49.0
2023-01-18T00:52:00.795Z,49.0
2023-01-18T00:53:05.922Z,49.0
2023-01-18T00:54:38.843Z,49.0
2023-01-18T00:55:32.437Z,49.1
2023-01-18T00:56:35.339Z,49.0
2023-01-18T00:57:48.935Z,49.0
2023-01-18T00:59:01.740Z,49.0
2023-01-18T01:00:05.407Z,49.0
2023-01-18T01:01:18.373Z,48.9
2023-01-18T01:02:31.964Z,49.0
2023-01-18T01:03:34.800Z,48.9
2023-01-18T01:04:48.405Z,48.9
2023-01-18T01:06:01.293Z,48.9
2023-01-18T01:07:14.914Z,48.9
2023-01-18T01:08:17.744Z,48.9
2023-01-18T01:09:31.405Z,48.8
2023-01-18T01:10:44.188Z,48.9
2023-01-18T01:11:47.936Z,48.9
2023-01-18T01:13:00.738Z,48.9
2023-01-18T01:14:14.422Z,48.9
2023-01-18T01:15:17.340Z,48.9
2023-01-18T01:16:31.011Z,48.9
2023-01-18T01:17:43.922Z,48.9
2023-01-18T01:18:47.414Z,49.0
2023-01-18T01:20:00.209Z,48.9
2023-01-18T01:21:13.923Z,48.9
2023-01-18T01:22:26.735Z,48.9
2023-01-18T01:23:30.439Z,48.9
2023-01-18T01:24:43.251Z,48.9
2023-01-18T01:25:56.913Z,48.9
2023-01-18T01:26:59.745Z,48.9
2023-01-18T01:28:13.423Z,48.9
2023-01-18T01:29:26.227Z,48.9
2023-01-18T01:30:29.961Z,48.9
2023-01-18T01:31:42.917Z,48.9
2023-01-18T01:32:56.716Z,48.9
2023-01-18T01:33:59.865Z,48.9
2023-01-18T01:35:13.440Z,48.9
2023-01-18T01:36:26.262Z,48.9
2023-01-18T01:37:29.935Z,48.9
2023-01-18T01:38:42.789Z,48.9
2023-01-18T01:39:56.419Z,48.9
2023-01-18T01:41:09.218Z,48.9
2023-01-18T01:42:12.946Z,48.9
2023-01-18T01:43:25.764Z,48.9
2023-01-18T01:44:39.432Z,48.9
2023-01-18T01:45:42.292Z,48.9
2023-01-18T01:46:55.939Z,48.9
2023-01-18T01:48:08.756Z,48.9
2023-01-18T01:49:12.414Z,48.9
2023-01-18T01:50:25.208Z,48.9
2023-01-18T01:51:38.943Z,48.9
2023-01-18T01:52:41.817Z,48.9
2023-01-18T01:53:55.438Z,48.9
2023-01-18T01:55:08.176Z,48.9
2023-01-18T01:56:21.932Z,48.9
2023-01-18T01:57:24.757Z,48.9
2023-01-18T01:58:48.435Z,48.9
2023-01-18T01:59:51.258Z,48.9
2023-01-18T02:00:55.078Z,48.9
2023-01-18T02:02:08.179Z,48.8
2023-01-18T02:03:21.916Z,48.9
2023-01-18T02:04:24.760Z,48.8
2023-01-18T02:05:38.442Z,48.8
2023-01-18T02:06:51.251Z,48.9
2023-01-18T02:07:54.932Z,48.8
2023-01-18T02:09:07.748Z,48.9
2023-01-18T02:10:21.426Z,48.9
2023-01-18T02:11:24.222Z,48.8
2023-01-18T02:12:37.944Z,48.8
2023-01-18T02:13:50.762Z,48.9
2023-01-18T02:15:04.452Z,48.8
2023-01-18T02:16:07.296Z,48.8
2023-01-18T02:17:20.925Z,48.9
2023-01-18T02:18:33.807Z,48.9
2023-01-18T02:19:37.445Z,48.9
2023-01-18T02:20:50.255Z,48.9
2023-01-18T02:22:03.925Z,48.8
2023-01-18T02:23:06.773Z,48.9
2023-01-18T02:24:20.423Z,48.9
2023-01-18T02:25:33.393Z,48.8
2023-01-18T02:26:47.415Z,48.8
2023-01-18T02:27:50.299Z,48.9
2023-01-18T02:29:03.973Z,48.8
2023-01-18T02:30:16.775Z,48.9
2023-01-18T02:31:20.423Z,48.9
2023-01-18T02:32:33.237Z,48.9
2023-01-18T02:33:47.215Z,48.8
2023-01-18T02:34:50.110Z,48.9
2023-01-18T02:36:03.944Z,48.9
2023-01-18T02:37:16.700Z,48.9
2023-01-18T02:38:20.431Z,48.9
2023-01-18T02:39:33.256Z,48.9
2023-01-18T02:40:46.944Z,48.9
2023-01-18T02:41:49.791Z,48.9
2023-01-18T02:43:03.438Z,48.9
2023-01-18T02:44:36.258Z,48.9
2023-01-18T02:45:29.933Z,48.9
2023-01-18T02:46:32.790Z,48.9
2023-01-18T02:47:46.424Z,48.9
2023-01-18T02:48:59.249Z,48.9
2023-01-18T02:50:02.941Z,48.9
2023-01-18T02:51:15.761Z,48.8
2023-01-18T02:52:29.428Z,48.8
2023-01-18T02:53:32.295Z,48.8
2023-01-18T02:54:45.953Z,48.8
2023-01-18T02:55:58.802Z,48.9
2023-01-18T02:57:12.457Z,48.9
2023-01-18T02:58:15.335Z,48.9
2023-01-18T02:59:29.014Z,48.9
2023-01-18T03:00:41.879Z,48.8
2023-01-18T03:01:45.569Z,48.9
2023-01-18T03:02:58.994Z,48.8
2023-01-18T03:04:12.979Z,48.8
2023-01-18T03:05:15.815Z,48.8
2023-01-18T03:06:29.497Z,48.8
2023-01-18T03:07:42.416Z,48.8
2023-01-18T03:08:45.940Z,48.8
2023-01-18T03:09:58.774Z,48.8
2023-01-18T03:11:12.451Z,48.8
2023-01-18T03:12:15.279Z,48.8
2023-01-18T03:13:28.939Z,48.9
2023-01-18T03:14:41.752Z,48.8
2023-01-18T03:15:55.538Z,48.8
2023-01-18T03:16:58.513Z,48.8
2023-01-18T03:18:13.447Z,48.8
2023-01-18T03:19:16.293Z,48.8
2023-01-18T03:20:29.978Z,48.8
2023-01-18T03:21:42.776Z,48.8
2023-01-18T03:22:56.785Z,48.8
2023-01-18T03:23:59.880Z,48.8
2023-01-18T03:25:13.429Z,48.8
2023-01-18T03:26:26.257Z,48.8
2023-01-18T03:27:29.949Z,48.8
2023-01-18T03:28:42.744Z,48.8
2023-01-18T03:29:56.537Z,48.8
2023-01-18T03:30:59.395Z,48.8
2023-01-18T03:32:12.949Z,48.8
2023-01-18T03:33:25.840Z,48.8
2023-01-18T03:34:39.462Z,48.8
2023-01-18T03:35:42.341Z,48.8
2023-01-18T03:36:55.974Z,48.8
2023-01-18T03:38:08.751Z,48.8
2023-01-18T03:39:12.473Z,48.8
2023-01-18T03:40:25.470Z,48.7
2023-01-18T03:41:38.984Z,48.8
2023-01-18T03:42:41.834Z,48.7
2023-01-18T03:43:55.477Z,48.7
2023-01-18T03:45:08.293Z,48.7
2023-01-18T03:46:12.006Z,48.7
2023-01-18T03:47:24.852Z,48.7
2023-01-18T03:48:38.468Z,48.7
2023-01-18T03:49:51.264Z,48.8
2023-01-18T03:50:54.980Z,48.8
2023-01-18T03:52:07.803Z,48.8
2023-01-18T03:53:21.475Z,48.7
2023-01-18T03:54:24.567Z,48.8
2023-01-18T03:55:37.965Z,48.8
2023-01-18T03:56:50.752Z,48.8
2023-01-18T03:57:54.468Z,48.8
2023-01-18T03:59:07.285Z,48.8
2023-01-18T04:00:20.938Z,48.7
2023-01-18T04:01:33.819Z,48.7
2023-01-18T04:02:39.012Z,48.7
2023-01-18T04:03:51.911Z,48.7
2023-01-18T04:04:55.447Z,48.7
2023-01-18T04:06:08.346Z,48.7
2023-01-18T04:07:21.966Z,48.7
2023-01-18T04:08:34.880Z,48.7
2023-01-18T04:09:38.468Z,48.7
2023-01-18T04:10:51.484Z,48.8
2023-01-18T04:12:05.467Z,48.7
2023-01-18T04:14:24.839Z,48.7
2023-01-18T04:15:27.674Z,48.7
2023-01-18T04:16:41.494Z,48.7
2023-01-18T04:17:54.606Z,48.7
2023-01-18T04:18:58.469Z,48.7
2023-01-18T04:20:11.303Z,48.7
2023-01-18T04:21:24.951Z,48.7
2023-01-18T04:22:27.914Z,48.7
2023-01-18T04:23:41.458Z,48.7
2023-01-18T04:24:54.262Z,48.7
2023-01-18T04:26:07.993Z,48.7
2023-01-18T04:27:21.912Z,48.7
2023-01-18T04:28:27.002Z,48.7
2023-01-18T04:29:30.002Z,48.6
2023-01-18T04:30:43.461Z,48.6
2023-01-18T04:31:56.281Z,48.6
2023-01-18T04:33:09.966Z,48.6
2023-01-18T04:34:12.794Z,48.6
2023-01-18T04:35:26.459Z,48.6
2023-01-18T04:36:39.269Z,48.6
2023-01-18T04:37:42.980Z,48.6
2023-01-18T04:38:55.794Z,48.6
2023-01-18T04:40:09.459Z,48.6
2023-01-18T04:41:12.337Z,48.6
2023-01-18T04:42:25.986Z,48.6
2023-01-18T04:43:38.805Z,48.6
2023-01-18T04:44:42.473Z,48.6
2023-01-18T04:45:55.041Z,48.6
2023-01-18T04:47:08.524Z,48.6
2023-01-18T04:48:21.135Z,48.6
2023-01-18T04:49:24.517Z,48.6
2023-01-18T04:50:37.331Z,48.6
2023-01-18T04:51:50.959Z,48.6
2023-01-18T04:52:53.812Z,48.6
2023-01-18T04:54:17.476Z,48.6
2023-01-18T04:55:20.320Z,48.7
2023-01-18T04:56:33.994Z,48.7
2023-01-18T04:57:36.831Z,48.7
2023-01-18T04:58:50.492Z,48.7
2023-01-18T05:00:03.301Z,48.7
2023-01-18T05:01:07.176Z,48.7
2023-01-18T05:02:20.195Z,48.7
2023-01-18T05:03:33.997Z,48.6
2023-01-18T05:04:36.834Z,48.6
2023-01-18T05:05:50.492Z,48.7
2023-01-18T05:07:03.330Z,48.7
2023-01-18T05:08:07.036Z,48.7
2023-01-18T05:09:19.895Z,48.7
2023-01-18T05:10:33.507Z,48.7
2023-01-18T05:11:36.461Z,48.6
2023-01-18T05:13:09.974Z,48.7
2023-01-18T05:14:02.867Z,48.8
2023-01-18T05:15:05.985Z,48.7
2023-01-18T05:16:19.511Z,48.7
2023-01-18T05:17:32.531Z,48.7
2023-01-18T05:18:46.023Z,48.8
2023-01-18T05:19:49.017Z,48.7
2023-01-18T05:21:02.989Z,48.7
2023-01-18T05:22:06.062Z,48.8
2023-01-18T05:23:19.517Z,48.8
2023-01-18T05:24:32.406Z,48.9
2023-01-18T05:25:45.969Z,49.2
2023-01-18T05:26:48.794Z,49.3
2023-01-18T05:28:02.467Z,49.2
2023-01-18T05:29:15.412Z,49.2
2023-01-18T05:30:18.989Z,49.3
2023-01-18T05:31:31.835Z,49.3
2023-01-18T05:32:45.481Z,49.4
2023-01-18T05:33:48.357Z,49.5
2023-01-18T05:35:02.014Z,49.4
2023-01-18T05:36:14.840Z,49.5
2023-01-18T05:37:38.504Z,49.5
2023-01-18T05:38:31.397Z,49.6
2023-01-18T05:39:45.030Z,49.6
2023-01-18T05:40:47.868Z,49.5
2023-01-18T05:42:01.483Z,49.6
2023-01-18T05:43:14.279Z,49.6
2023-01-18T05:44:27.994Z,49.6
2023-01-18T05:45:30.859Z,49.6
2023-01-18T05:46:44.478Z,49.6
2023-01-18T05:47:57.280Z,49.6
2023-01-18T05:49:01.000Z,49.6
2023-01-18T05:50:13.796Z,49.7
2023-01-18T05:51:27.505Z,49.7
2023-01-18T05:52:30.328Z,49.7
2023-01-18T05:53:44.032Z,49.8
2023-01-18T05:54:56.832Z,49.8
2023-01-18T05:56:00.511Z,49.8
2023-01-18T05:57:13.259Z,49.8
2023-01-18T05:58:26.994Z,49.8
2023-01-18T05:59:39.820Z,49.9
2023-01-18T06:00:43.456Z,50.0
2023-01-18T06:01:56.310Z,49.9
2023-01-18T06:03:10.898Z,49.9
2023-01-18T06:04:13.821Z,49.9
2023-01-18T06:05:27.478Z,49.9
2023-01-18T06:06:40.294Z,49.9
2023-01-18T06:07:43.995Z,50.0
2023-01-18T06:08:56.840Z,50.4
2023-01-18T06:10:10.509Z,50.4
2023-01-18T06:11:13.294Z,50.3
2023-01-18T06:12:26.987Z,50.5
2023-01-18T06:13:39.697Z,50.1
2023-01-18T06:14:43.515Z,49.8
2023-01-18T06:15:56.636Z,49.5
2023-01-18T06:17:10.061Z,49.1
2023-01-18T06:18:12.747Z,48.8
2023-01-18T06:19:26.013Z,48.6
2023-01-18T06:20:38.668Z,48.3
2023-01-18T06:21:51.988Z,48.1
2023-01-18T06:22:54.732Z,47.8
2023-01-18T06:24:08.034Z,47.6
2023-01-18T06:25:20.671Z,47.2
2023-01-18T06:26:34.044Z,47.1
2023-01-18T06:27:36.743Z,47.1
2023-01-18T06:29:10.024Z,47.1
2023-01-18T06:30:02.787Z,47.2
2023-01-18T06:31:05.502Z,47.3
2023-01-18T06:32:19.061Z,47.4
2023-01-18T06:33:31.732Z,47.5
2023-01-18T06:34:35.495Z,47.6
2023-01-18T06:35:48.289Z,47.6
2023-01-18T06:37:02.010Z,47.8
2023-01-18T06:38:04.788Z,47.9
2023-01-18T06:39:18.511Z,47.9
2023-01-18T06:40:31.248Z,48.0
2023-01-18T06:41:45.005Z,48.1
2023-01-18T06:42:47.816Z,48.2
2023-01-18T06:44:01.582Z,48.2
2023-01-18T06:45:14.441Z,48.3
2023-01-18T06:46:18.039Z,48.3
2023-01-18T06:47:30.855Z,48.4
2023-01-18T06:48:44.474Z,48.4
2023-01-18T06:49:47.438Z,48.5
2023-01-18T06:51:01.010Z,48.5
2023-01-18T06:52:13.805Z,48.6
2023-01-18T06:53:17.505Z,48.6
2023-01-18T06:54:30.371Z,48.6
2023-01-18T06:55:44.005Z,48.7
2023-01-18T06:56:46.802Z,48.7
2023-01-18T06:58:00.510Z,48.7
2023-01-18T06:59:13.305Z,48.7
2023-01-18T07:00:27.147Z,48.8
2023-01-18T07:01:30.061Z,48.8
2023-01-18T07:02:44.556Z,48.9
2023-01-18T07:03:47.456Z,48.8
2023-01-18T07:05:01.036Z,48.8
2023-01-18T07:06:14.001Z,48.9
2023-01-18T07:07:27.510Z,48.9
2023-01-18T07:08:30.392Z,48.9
2023-01-18T07:09:43.993Z,48.9
2023-01-18T07:10:56.805Z,48.9
2023-01-18T07:12:00.519Z,48.9
2023-01-18T07:13:13.324Z,48.9
2023-01-18T07:14:26.996Z,48.9
2023-01-18T07:15:29.920Z,48.9
2023-01-18T07:16:43.657Z,49.0
2023-01-18T07:17:56.587Z,49.0
2023-01-18T07:19:00.043Z,49.0
2023-01-18T07:20:12.859Z,49.0
2023-01-18T07:21:26.588Z,49.0
2023-01-18T07:22:39.391Z,49.0
2023-01-18T07:23:42.992Z,49.0
2023-01-18T07:24:55.771Z,49.0
2023-01-18T07:26:09.503Z,49.0
2023-01-18T07:27:12.366Z,49.0
2023-01-18T07:28:26.530Z,49.0
2023-01-18T07:29:39.337Z,49.0
2023-01-18T07:30:43.000Z,49.0
2023-01-18T07:32:05.832Z,49.0
2023-01-18T07:33:09.537Z,49.0
2023-01-18T07:34:12.357Z,49.1
2023-01-18T07:35:26.060Z,49.0
2023-01-18T07:36:38.860Z,49.0
2023-01-18T07:37:42.533Z,49.0
2023-01-18T07:38:55.380Z,49.0
2023-01-18T07:40:19.005Z,49.0
2023-01-18T07:41:11.872Z,49.0
2023-01-18T07:42:25.591Z,49.0
2023-01-18T07:43:38.384Z,49.0
2023-01-18T07:44:42.014Z,49.0
2023-01-18T07:45:54.869Z,49.0
2023-01-18T07:47:08.507Z,49.0
2023-01-18T07:48:21.543Z,48.9
2023-01-18T07:49:25.735Z,49.0
2023-01-18T07:50:38.503Z,49.0
2023-01-18T07:51:52.013Z,49.0
2023-01-18T07:52:54.835Z,49.0
2023-01-18T07:54:08.517Z,48.9
2023-01-18T07:55:21.323Z,49.0
2023-01-18T07:56:25.066Z,49.0
2023-01-18T07:57:37.866Z,49.0
2023-01-18T07:58:51.540Z,49.0
2023-01-18T07:59:54.390Z,49.0
2023-01-18T08:01:08.192Z,49.0
2023-01-18T08:02:21.142Z,49.0
2023-01-18T08:03:25.044Z,49.0
2023-01-18T08:04:37.871Z,49.0
2023-01-18T08:05:51.550Z,49.1
2023-01-18T08:06:54.407Z,49.1
2023-01-18T08:08:28.016Z,49.0
2023-01-18T08:09:20.963Z,49.1
2023-01-18T08:10:34.576Z,49.0
2023-01-18T08:11:37.444Z,49.0
2023-01-18T08:12:51.034Z,49.0
2023-01-18T08:14:03.831Z,49.0
2023-01-18T08:15:07.544Z,49.0
2023-01-18T08:16:20.408Z,48.9
2023-01-18T08:17:34.033Z,48.9
2023-01-18T08:18:36.883Z,48.9
2023-01-18T08:19:50.541Z,48.9
2023-01-18T08:21:04.377Z,48.9
2023-01-18T08:22:08.039Z,48.9
2023-01-18T08:23:20.843Z,49.0
2023-01-18T08:24:34.580Z,49.0
2023-01-18T08:25:37.448Z,48.9
2023-01-18T08:26:51.043Z,49.0
2023-01-18T08:28:03.862Z,49.0
2023-01-18T08:29:17.521Z,49.0
2023-01-18T08:30:20.377Z,49.0
2023-01-18T08:31:34.150Z,48.9
2023-01-18T08:32:47.070Z,49.0
2023-01-18T08:33:50.581Z,48.9
2023-01-18T08:35:03.511Z,48.9
2023-01-18T08:36:17.030Z,48.9
2023-01-18T08:37:19.871Z,48.9
2023-01-18T08:38:33.519Z,48.9
2023-01-18T08:39:46.366Z,48.8
2023-01-18T08:40:50.091Z,48.8
2023-01-18T08:42:02.920Z,48.8
2023-01-18T08:43:16.588Z,48.9
2023-01-18T08:44:29.419Z,48.8
2023-01-18T08:45:43.055Z,48.7
2023-01-18T08:46:45.938Z,48.7
2023-01-18T08:47:59.565Z,48.7
2023-01-18T08:49:02.569Z,48.7
2023-01-18T08:50:16.026Z,48.7
2023-01-18T08:51:28.814Z,48.6
2023-01-18T08:52:32.531Z,48.6
2023-01-18T08:53:45.333Z,48.6
2023-01-18T08:54:59.043Z,48.6
2023-01-18T08:56:01.868Z,48.6
2023-01-18T08:57:15.572Z,48.6
2023-01-18T08:58:28.354Z,48.5
2023-01-18T08:59:42.044Z,48.4
2023-01-18T09:00:44.766Z,48.2
2023-01-18T09:01:58.662Z,47.9
2023-01-18T09:03:11.410Z,47.6
2023-01-18T09:04:15.085Z,47.3
2023-01-18T09:05:28.089Z,47.2
2023-01-18T09:06:41.568Z,46.9
2023-01-18T09:07:44.283Z,46.7
2023-01-18T09:08:59.037Z,46.5
2023-01-18T09:10:11.584Z,46.3
2023-01-18T09:11:15.044Z,46.1
2023-01-18T09:12:27.570Z,45.9
2023-01-18T09:13:54.511Z,45.7
2023-01-18T09:14:51.957Z,45.6
2023-01-18T09:15:54.613Z,45.4
2023-01-18T09:17:08.061Z,45.3
2023-01-18T09:18:20.598Z,45.1
2023-01-18T09:19:24.108Z,45.0
2023-01-18T09:20:36.758Z,45.0
2023-01-18T09:21:50.130Z,44.9
2023-01-18T09:22:52.739Z,44.8
2023-01-18T09:24:06.073Z,44.6
2023-01-18T09:25:38.561Z,44.6
2023-01-18T09:26:32.094Z,44.5
2023-01-18T09:27:54.550Z,44.4
2023-01-18T09:28:48.070Z,44.3
2023-01-18T09:30:00.612Z,44.2
2023-01-18T09:31:04.125Z,44.1
2023-01-18T09:32:16.673Z,44.0
2023-01-18T09:33:37.677Z,44.0
2023-01-18T09:34:40.709Z,43.9
2023-01-18T09:35:44.064Z,43.8
2023-01-18T09:36:56.518Z,43.8
2023-01-18T09:38:09.587Z,43.8
2023-01-18T09:39:22.088Z,43.7
2023-01-18T09:40:25.572Z,43.6
2023-01-18T09:41:38.078Z,43.6
2023-01-18T09:42:51.598Z,43.6
2023-01-18T09:43:54.265Z,43.6
2023-01-18T09:45:07.573Z,43.5
2023-01-18T09:46:20.017Z,43.5
2023-01-18T09:47:33.574Z,43.4
2023-01-18T09:48:36.123Z,43.4
2023-01-18T09:49:49.603Z,43.3
2023-01-18T09:51:02.082Z,43.3
2023-01-18T09:52:05.550Z,43.2
2023-01-18T09:53:18.002Z,43.3
2023-01-18T09:54:31.085Z,43.2
2023-01-18T09:55:33.612Z,43.2
2023-01-18T09:56:47.070Z,43.1
2023-01-18T09:57:59.553Z,43.1
2023-01-18T09:59:12.549Z,43.1
2023-01-18T10:00:15.151Z,43.0
2023-01-18T10:01:28.653Z,43.0
2023-01-18T10:02:41.250Z,42.9
2023-01-18T10:03:44.580Z,42.9
2023-01-18T10:04:57.093Z,42.8
2023-01-18T10:06:10.535Z,42.8
2023-01-18T10:07:22.981Z,42.8
2023-01-18T10:08:26.577Z,42.7
2023-01-18T10:09:38.988Z,42.7
2023-01-18T10:10:52.092Z,42.7
2023-01-18T10:11:54.604Z,42.6
2023-01-18T10:13:08.035Z,42.6
2023-01-18T10:14:20.473Z,42.6
2023-01-18T10:15:33.542Z,42.5
2023-01-18T10:16:36.157Z,42.5
2023-01-18T10:17:49.540Z,42.4
2023-01-18T10:19:01.987Z,42.4
2023-01-18T10:20:05.669Z,42.4
2023-01-18T10:21:18.255Z,42.3
2023-01-18T10:22:31.582Z,42.2
2023-01-18T10:23:34.063Z,42.2
2023-01-18T10:24:47.101Z,42.1
2023-01-18T10:25:59.493Z,42.1
2023-01-18T10:27:12.608Z,42.0
2023-01-18T10:28:15.140Z,42.0
2023-01-18T10:29:28.543Z,41.9
2023-01-18T10:30:41.063Z,41.9
2023-01-18T10:31:54.593Z,41.8
2023-01-18T10:32:57.481Z,41.8
2023-01-18T10:34:11.116Z,41.7
2023-01-18T10:35:23.488Z,41.6
2023-01-18T10:36:26.593Z,41.6
2023-01-18T10:37:38.986Z,41.5
2023-01-18T10:38:52.119Z,41.5
2023-01-18T10:39:54.633Z,41.4
2023-01-18T10:41:08.075Z,41.3
2023-01-18T10:42:20.453Z,41.3
2023-01-18T10:43:33.590Z,41.3
2023-01-18T10:44:36.082Z,41.2
2023-01-18T10:45:49.106Z,41.1
2023-01-18T10:47:01.494Z,41.2
2023-01-18T10:48:04.595Z,41.0
2023-01-18T10:49:16.986Z,41.1
2023-01-18T10:50:30.126Z,41.0
2023-01-18T10:51:42.524Z,40.9
2023-01-18T10:52:45.564Z,40.9
2023-01-18T10:53:58.055Z,40.9
2023-01-18T10:55:11.065Z,40.8
2023-01-18T10:56:23.308Z,40.8
2023-01-18T10:57:26.620Z,40.8
2023-01-18T10:58:39.006Z,40.7
2023-01-18T10:59:52.077Z,40.7
2023-01-18T11:00:54.653Z,40.7
2023-01-18T11:02:08.288Z,40.6
2023-01-18T11:03:20.855Z,40.6
2023-01-18T11:04:34.114Z,40.6
2023-01-18T11:05:36.609Z,40.6
2023-01-18T11:06:50.070Z,40.5
2023-01-18T11:08:02.765Z,40.5
2023-01-18T11:09:06.096Z,40.4
2023-01-18T11:10:18.500Z,40.3
2023-01-18T11:11:32.628Z,40.3
2023-01-18T11:12:35.231Z,40.3
2023-01-18T11:13:48.621Z,40.3
2023-01-18T11:15:01.112Z,40.3
2023-01-18T11:16:14.627Z,40.2
2023-01-18T11:17:17.231Z,40.2
2023-01-18T11:18:30.627Z,40.2
2023-01-18T11:19:43.021Z,40.2
2023-01-18T11:20:46.086Z,40.1
2023-01-18T11:21:58.529Z,40.1
2023-01-18T11:23:11.618Z,40.0
2023-01-18T11:24:24.015Z,40.1
2023-01-18T11:25:27.095Z,40.0
2023-01-18T11:26:39.457Z,40.0
2023-01-18T11:27:52.601Z,40.0
2023-01-18T11:28:55.073Z,39.9
2023-01-18T11:30:08.114Z,39.9
2023-01-18T11:31:22.212Z,39.9
2023-01-18T11:32:25.580Z,39.9
2023-01-18T11:33:39.968Z,39.9
2023-01-18T11:34:53.079Z,39.8
2023-01-18T11:35:55.618Z,39.8
2023-01-18T11:37:08.600Z,39.8
2023-01-18T11:38:20.985Z,39.8
2023-01-18T11:39:34.087Z,39.8
2023-01-18T11:40:36.614Z,39.7
2023-01-18T11:41:50.168Z,39.6
2023-01-18T11:43:02.569Z,39.7
2023-01-18T11:44:05.560Z,39.6
2023-01-18T11:45:17.928Z,39.5
2023-01-18T11:46:31.092Z,39.5
2023-01-18T11:47:33.540Z,39.5
2023-01-18T11:48:46.630Z,39.5
2023-01-18T11:49:59.035Z,39.7
2023-01-18T11:51:12.107Z,39.6
2023-01-18T11:52:14.595Z,39.6
2023-01-18T11:53:27.615Z,39.6
2023-01-18T11:54:39.975Z,39.6
2023-01-18T11:55:53.101Z,39.5
2023-01-18T11:56:55.722Z,39.5
2023-01-18T11:58:09.116Z,39.5
2023-01-18T11:59:21.484Z,39.5
2023-01-18T12:00:24.596Z,39.6
2023-01-18T12:01:36.950Z,39.5
2023-01-18T12:02:50.595Z,39.4
2023-01-18T12:03:53.155Z,39.4
2023-01-18T12:05:06.624Z,39.4
2023-01-18T12:06:19.045Z,39.4
2023-01-18T12:07:32.599Z,39.4
2023-01-18T12:08:35.668Z,39.2
2023-01-18T12:09:49.101Z,39.3
2023-01-18T12:10:51.531Z,39.3
2023-01-18T12:12:18.169Z,39.3
2023-01-18T12:13:11.440Z,39.2
2023-01-18T12:14:24.610Z,39.2
2023-01-18T12:15:36.973Z,39.2
2023-01-18T12:16:50.114Z,39.2
2023-01-18T12:17:58.625Z,39.2
2023-01-18T12:19:11.117Z,39.1
2023-01-18T12:20:13.531Z,39.1
2023-01-18T12:21:26.581Z,39.1
2023-01-18T12:22:38.926Z,39.0
2023-01-18T12:23:42.081Z,39.0
2023-01-18T12:24:54.433Z,39.1
2023-01-18T12:26:12.484Z,39.0
